sensor_id;sensor_type;location;lat;lon;timestamp;P1;durP1;ratioP1;P2;durP2;ratioP2
4555;SDS011;2290;48.674;9.018;2022-08-21T00:02:23;2.40;;;1.70;;
4555;SDS011;2290;48.674;9.018;2022-08-21T00:04:50;1.60;;;1.50;;
4555;SDS011;2290;48.674;9.018;2022-08-21T00:07:17;2.97;;;1.57;;
4555;SDS011;2290;48.674;9.018;2022-08-21T00:09:46;2.60;;;1.67;;
4555;SDS011;2290;48.674;9.018;2022-08-21T00:12:12;2.90;;;1.87;;
4555;SDS011;2290;48.674;9.018;2022-08-21T00:14:38;3.40;;;2.10;;
4555;SDS011;2290;48.674;9.018;2022-08-21T00:17:04;3.80;;;1.90;;
4555;SDS011;2290;48.674;9.018;2022-08-21T00:19:31;3.00;;;2.00;;
4555;SDS011;2290;48.674;9.018;2022-08-21T00:21:57;1.90;;;1.60;;
4555;SDS011;2290;48.674;9.018;2022-08-21T00:24:23;4.03;;;1.70;;
4555;SDS011;2290;48.674;9.018;2022-08-21T00:26:50;1.97;;;1.77;;
4555;SDS011;2290;48.674;9.018;2022-08-21T00:29:16;1.83;;;1.57;;
4555;SDS011;2290;48.674;9.018;2022-08-21T00:31:43;2.30;;;1.63;;
4555;SDS011;2290;48.674;9.018;2022-08-21T00:34:09;2.20;;;1.80;;
4555;SDS011;2290;48.674;9.018;2022-08-21T00:36:36;2.07;;;1.83;;
4555;SDS011;2290;48.674;9.018;2022-08-21T00:39:03;1.97;;;1.70;;
4555;SDS011;2290;48.674;9.018;2022-08-21T00:41:31;6.10;;;1.90;;
4555;SDS011;2290;48.674;9.018;2022-08-21T00:43:57;1.97;;;1.53;;
4555;SDS011;2290;48.674;9.018;2022-08-21T00:46:22;5.03;;;2.10;;
4555;SDS011;2290;48.674;9.018;2022-08-21T00:48:48;2.67;;;2.03;;
4555;SDS011;2290;48.674;9.018;2022-08-21T00:51:17;3.37;;;1.77;;
4555;SDS011;2290;48.674;9.018;2022-08-21T00:53:48;2.80;;;2.00;;
4555;SDS011;2290;48.674;9.018;2022-08-21T00:56:17;1.83;;;1.50;;
4555;SDS011;2290;48.674;9.018;2022-08-21T00:58:43;2.43;;;2.20;;
4555;SDS011;2290;48.674;9.018;2022-08-21T01:01:10;2.10;;;1.90;;
4555;SDS011;2290;48.674;9.018;2022-08-21T01:03:36;2.73;;;1.80;;
4555;SDS011;2290;48.674;9.018;2022-08-21T01:06:02;2.23;;;1.70;;
4555;SDS011;2290;48.674;9.018;2022-08-21T01:08:29;1.53;;;1.30;;
4555;SDS011;2290;48.674;9.018;2022-08-21T01:10:55;3.27;;;2.07;;
4555;SDS011;2290;48.674;9.018;2022-08-21T01:13:22;2.10;;;1.70;;
4555;SDS011;2290;48.674;9.018;2022-08-21T01:15:50;3.47;;;1.77;;
4555;SDS011;2290;48.674;9.018;2022-08-21T01:18:18;2.30;;;1.70;;
4555;SDS011;2290;48.674;9.018;2022-08-21T01:21:03;2.70;;;1.80;;
4555;SDS011;2290;48.674;9.018;2022-08-21T01:23:28;2.50;;;2.00;;
4555;SDS011;2290;48.674;9.018;2022-08-21T01:25:54;2.77;;;1.60;;
4555;SDS011;2290;48.674;9.018;2022-08-21T01:28:20;3.30;;;2.00;;
4555;SDS011;2290;48.674;9.018;2022-08-21T01:30:47;2.77;;;2.17;;
4555;SDS011;2290;48.674;9.018;2022-08-21T01:33:15;2.57;;;1.73;;
4555;SDS011;2290;48.674;9.018;2022-08-21T01:35:43;1.87;;;1.77;;
4555;SDS011;2290;48.674;9.018;2022-08-21T01:38:09;2.80;;;2.07;;
4555;SDS011;2290;48.674;9.018;2022-08-21T01:40:34;2.00;;;1.80;;
4555;SDS011;2290;48.674;9.018;2022-08-21T01:43:00;1.60;;;1.50;;
4555;SDS011;2290;48.674;9.018;2022-08-21T01:45:26;3.20;;;1.70;;
4555;SDS011;2290;48.674;9.018;2022-08-21T01:47:51;1.93;;;1.50;;
4555;SDS011;2290;48.674;9.018;2022-08-21T01:50:17;2.17;;;1.80;;
4555;SDS011;2290;48.674;9.018;2022-08-21T01:52:45;2.87;;;1.97;;
4555;SDS011;2290;48.674;9.018;2022-08-21T01:55:11;3.00;;;2.00;;
4555;SDS011;2290;48.674;9.018;2022-08-21T01:57:38;2.20;;;1.83;;
4555;SDS011;2290;48.674;9.018;2022-08-21T02:00:08;1.53;;;1.43;;
4555;SDS011;2290;48.674;9.018;2022-08-21T02:02:36;1.77;;;1.67;;
4555;SDS011;2290;48.674;9.018;2022-08-21T02:05:03;2.70;;;1.60;;
4555;SDS011;2290;48.674;9.018;2022-08-21T02:07:39;2.23;;;1.57;;
4555;SDS011;2290;48.674;9.018;2022-08-21T02:10:07;2.10;;;1.83;;
4555;SDS011;2290;48.674;9.018;2022-08-21T02:12:35;2.17;;;1.60;;
4555;SDS011;2290;48.674;9.018;2022-08-21T02:15:01;2.27;;;2.03;;
4555;SDS011;2290;48.674;9.018;2022-08-21T02:17:39;2.00;;;1.70;;
4555;SDS011;2290;48.674;9.018;2022-08-21T02:20:11;1.90;;;1.70;;
4555;SDS011;2290;48.674;9.018;2022-08-21T02:22:44;2.03;;;1.80;;
4555;SDS011;2290;48.674;9.018;2022-08-21T02:25:11;2.27;;;1.67;;
4555;SDS011;2290;48.674;9.018;2022-08-21T02:27:37;2.07;;;1.80;;
4555;SDS011;2290;48.674;9.018;2022-08-21T02:30:08;2.77;;;2.00;;
4555;SDS011;2290;48.674;9.018;2022-08-21T02:32:38;2.80;;;1.80;;
4555;SDS011;2290;48.674;9.018;2022-08-21T02:35:05;5.73;;;2.10;;
4555;SDS011;2290;48.674;9.018;2022-08-21T02:37:31;2.50;;;2.10;;
4555;SDS011;2290;48.674;9.018;2022-08-21T02:39:56;4.53;;;2.33;;
4555;SDS011;2290;48.674;9.018;2022-08-21T02:42:23;2.00;;;1.60;;
4555;SDS011;2290;48.674;9.018;2022-08-21T02:44:49;1.90;;;1.80;;
4555;SDS011;2290;48.674;9.018;2022-08-21T02:47:14;1.80;;;1.60;;
4555;SDS011;2290;48.674;9.018;2022-08-21T02:49:40;2.20;;;1.90;;
4555;SDS011;2290;48.674;9.018;2022-08-21T02:52:05;2.33;;;1.90;;
4555;SDS011;2290;48.674;9.018;2022-08-21T02:54:31;2.80;;;1.70;;
4555;SDS011;2290;48.674;9.018;2022-08-21T02:56:57;8.90;;;2.03;;
4555;SDS011;2290;48.674;9.018;2022-08-21T02:59:22;3.07;;;1.97;;
4555;SDS011;2290;48.674;9.018;2022-08-21T03:01:48;4.10;;;2.33;;
4555;SDS011;2290;48.674;9.018;2022-08-21T03:04:14;2.13;;;1.67;;
4555;SDS011;2290;48.674;9.018;2022-08-21T03:06:39;2.17;;;1.97;;
4555;SDS011;2290;48.674;9.018;2022-08-21T03:09:05;3.03;;;1.97;;
4555;SDS011;2290;48.674;9.018;2022-08-21T03:11:30;2.97;;;1.70;;
4555;SDS011;2290;48.674;9.018;2022-08-21T03:13:56;2.20;;;1.80;;
4555;SDS011;2290;48.674;9.018;2022-08-21T03:16:21;2.20;;;1.80;;
4555;SDS011;2290;48.674;9.018;2022-08-21T03:18:47;2.33;;;1.93;;
4555;SDS011;2290;48.674;9.018;2022-08-21T03:21:12;2.57;;;2.10;;
4555;SDS011;2290;48.674;9.018;2022-08-21T03:23:39;1.80;;;1.60;;
4555;SDS011;2290;48.674;9.018;2022-08-21T03:26:07;2.10;;;1.80;;
4555;SDS011;2290;48.674;9.018;2022-08-21T03:28:32;3.30;;;2.20;;
4555;SDS011;2290;48.674;9.018;2022-08-21T03:30:58;1.90;;;1.70;;
4555;SDS011;2290;48.674;9.018;2022-08-21T03:33:24;2.77;;;2.00;;
4555;SDS011;2290;48.674;9.018;2022-08-21T03:35:57;3.63;;;2.40;;
4555;SDS011;2290;48.674;9.018;2022-08-21T03:38:25;5.80;;;2.07;;
4555;SDS011;2290;48.674;9.018;2022-08-21T03:40:52;2.60;;;1.63;;
4555;SDS011;2290;48.674;9.018;2022-08-21T03:43:18;2.50;;;1.60;;
4555;SDS011;2290;48.674;9.018;2022-08-21T03:45:44;3.00;;;2.30;;
4555;SDS011;2290;48.674;9.018;2022-08-21T03:48:10;1.87;;;1.63;;
4555;SDS011;2290;48.674;9.018;2022-08-21T03:50:39;2.07;;;1.83;;
4555;SDS011;2290;48.674;9.018;2022-08-21T03:53:06;2.57;;;1.50;;
4555;SDS011;2290;48.674;9.018;2022-08-21T03:55:33;2.40;;;1.77;;
4555;SDS011;2290;48.674;9.018;2022-08-21T03:57:58;2.80;;;1.60;;
4555;SDS011;2290;48.674;9.018;2022-08-21T04:00:24;1.93;;;1.60;;
4555;SDS011;2290;48.674;9.018;2022-08-21T04:02:50;3.63;;;2.13;;
4555;SDS011;2290;48.674;9.018;2022-08-21T04:05:17;2.30;;;1.57;;
4555;SDS011;2290;48.674;9.018;2022-08-21T04:07:59;2.40;;;1.67;;
4555;SDS011;2290;48.674;9.018;2022-08-21T04:10:27;3.03;;;2.10;;
4555;SDS011;2290;48.674;9.018;2022-08-21T04:12:56;2.73;;;1.90;;
4555;SDS011;2290;48.674;9.018;2022-08-21T04:15:22;1.83;;;1.70;;
4555;SDS011;2290;48.674;9.018;2022-08-21T04:17:49;2.57;;;2.00;;
4555;SDS011;2290;48.674;9.018;2022-08-21T04:20:15;3.63;;;2.07;;
4555;SDS011;2290;48.674;9.018;2022-08-21T04:22:41;2.57;;;1.80;;
4555;SDS011;2290;48.674;9.018;2022-08-21T04:25:07;2.20;;;1.80;;
4555;SDS011;2290;48.674;9.018;2022-08-21T04:27:34;2.30;;;1.90;;
4555;SDS011;2290;48.674;9.018;2022-08-21T04:30:00;2.17;;;1.70;;
4555;SDS011;2290;48.674;9.018;2022-08-21T04:32:26;1.90;;;1.60;;
4555;SDS011;2290;48.674;9.018;2022-08-21T04:34:57;2.27;;;1.67;;
4555;SDS011;2290;48.674;9.018;2022-08-21T04:37:24;3.00;;;1.90;;
4555;SDS011;2290;48.674;9.018;2022-08-21T04:39:50;2.27;;;1.80;;
4555;SDS011;2290;48.674;9.018;2022-08-21T04:42:15;2.40;;;1.73;;
4555;SDS011;2290;48.674;9.018;2022-08-21T04:44:41;3.17;;;1.80;;
4555;SDS011;2290;48.674;9.018;2022-08-21T04:47:08;2.87;;;2.20;;
4555;SDS011;2290;48.674;9.018;2022-08-21T04:49:33;2.40;;;2.13;;
4555;SDS011;2290;48.674;9.018;2022-08-21T04:51:59;2.20;;;2.00;;
4555;SDS011;2290;48.674;9.018;2022-08-21T04:54:25;1.80;;;1.57;;
4555;SDS011;2290;48.674;9.018;2022-08-21T04:56:52;2.50;;;1.60;;
4555;SDS011;2290;48.674;9.018;2022-08-21T04:59:28;3.03;;;1.80;;
4555;SDS011;2290;48.674;9.018;2022-08-21T05:01:56;2.10;;;1.83;;
4555;SDS011;2290;48.674;9.018;2022-08-21T05:04:23;1.90;;;1.57;;
4555;SDS011;2290;48.674;9.018;2022-08-21T05:06:55;2.67;;;1.90;;
4555;SDS011;2290;48.674;9.018;2022-08-21T05:09:22;2.20;;;1.70;;
4555;SDS011;2290;48.674;9.018;2022-08-21T05:11:49;1.97;;;1.73;;
4555;SDS011;2290;48.674;9.018;2022-08-21T05:14:16;4.30;;;2.00;;
4555;SDS011;2290;48.674;9.018;2022-08-21T05:16:42;2.93;;;2.17;;
4555;SDS011;2290;48.674;9.018;2022-08-21T05:19:09;3.00;;;1.93;;
4555;SDS011;2290;48.674;9.018;2022-08-21T05:21:35;3.07;;;2.20;;
4555;SDS011;2290;48.674;9.018;2022-08-21T05:24:03;2.43;;;1.83;;
4555;SDS011;2290;48.674;9.018;2022-08-21T05:26:28;2.50;;;1.77;;
4555;SDS011;2290;48.674;9.018;2022-08-21T05:28:54;3.67;;;2.03;;
4555;SDS011;2290;48.674;9.018;2022-08-21T05:31:20;2.10;;;1.80;;
4555;SDS011;2290;48.674;9.018;2022-08-21T05:33:46;3.33;;;2.17;;
4555;SDS011;2290;48.674;9.018;2022-08-21T05:36:11;2.00;;;1.80;;
4555;SDS011;2290;48.674;9.018;2022-08-21T05:38:37;1.93;;;1.73;;
4555;SDS011;2290;48.674;9.018;2022-08-21T05:41:03;2.77;;;2.10;;
4555;SDS011;2290;48.674;9.018;2022-08-21T05:43:28;2.60;;;1.97;;
4555;SDS011;2290;48.674;9.018;2022-08-21T05:45:54;3.83;;;2.00;;
4555;SDS011;2290;48.674;9.018;2022-08-21T05:48:20;2.13;;;1.80;;
4555;SDS011;2290;48.674;9.018;2022-08-21T05:50:48;4.23;;;1.80;;
4555;SDS011;2290;48.674;9.018;2022-08-21T05:53:15;3.63;;;2.07;;
4555;SDS011;2290;48.674;9.018;2022-08-21T05:55:42;2.30;;;2.00;;
4555;SDS011;2290;48.674;9.018;2022-08-21T05:58:08;3.80;;;2.30;;
4555;SDS011;2290;48.674;9.018;2022-08-21T06:00:34;2.83;;;2.27;;
4555;SDS011;2290;48.674;9.018;2022-08-21T06:03:01;2.47;;;1.93;;
4555;SDS011;2290;48.674;9.018;2022-08-21T06:05:26;9.53;;;2.97;;
4555;SDS011;2290;48.674;9.018;2022-08-21T06:07:52;4.43;;;2.83;;
4555;SDS011;2290;48.674;9.018;2022-08-21T06:10:17;3.60;;;2.40;;
4555;SDS011;2290;48.674;9.018;2022-08-21T06:12:45;4.43;;;2.50;;
4555;SDS011;2290;48.674;9.018;2022-08-21T06:15:10;3.40;;;2.27;;
4555;SDS011;2290;48.674;9.018;2022-08-21T06:17:36;2.83;;;2.30;;
4555;SDS011;2290;48.674;9.018;2022-08-21T06:20:02;3.10;;;2.37;;
4555;SDS011;2290;48.674;9.018;2022-08-21T06:22:29;3.80;;;2.33;;
4555;SDS011;2290;48.674;9.018;2022-08-21T06:24:55;3.90;;;2.63;;
4555;SDS011;2290;48.674;9.018;2022-08-21T06:27:20;2.50;;;2.00;;
4555;SDS011;2290;48.674;9.018;2022-08-21T06:29:46;3.37;;;2.43;;
4555;SDS011;2290;48.674;9.018;2022-08-21T06:32:12;2.93;;;2.40;;
4555;SDS011;2290;48.674;9.018;2022-08-21T06:34:39;3.60;;;2.60;;
4555;SDS011;2290;48.674;9.018;2022-08-21T06:37:06;4.47;;;2.90;;
4555;SDS011;2290;48.674;9.018;2022-08-21T06:39:32;3.53;;;2.27;;
4555;SDS011;2290;48.674;9.018;2022-08-21T06:41:58;3.67;;;2.23;;
4555;SDS011;2290;48.674;9.018;2022-08-21T06:44:24;3.13;;;2.30;;
4555;SDS011;2290;48.674;9.018;2022-08-21T06:46:52;3.07;;;1.90;;
4555;SDS011;2290;48.674;9.018;2022-08-21T06:49:17;3.50;;;2.60;;
4555;SDS011;2290;48.674;9.018;2022-08-21T06:51:43;3.57;;;2.93;;
4555;SDS011;2290;48.674;9.018;2022-08-21T06:54:08;4.90;;;2.83;;
4555;SDS011;2290;48.674;9.018;2022-08-21T06:56:34;2.60;;;2.23;;
4555;SDS011;2290;48.674;9.018;2022-08-21T06:59:03;2.57;;;2.33;;
4555;SDS011;2290;48.674;9.018;2022-08-21T07:01:30;4.40;;;2.43;;
4555;SDS011;2290;48.674;9.018;2022-08-21T07:03:55;2.80;;;2.30;;
4555;SDS011;2290;48.674;9.018;2022-08-21T07:06:21;4.90;;;2.63;;
4555;SDS011;2290;48.674;9.018;2022-08-21T07:08:47;4.80;;;2.60;;
4555;SDS011;2290;48.674;9.018;2022-08-21T07:11:14;2.93;;;2.40;;
4555;SDS011;2290;48.674;9.018;2022-08-21T07:13:46;3.20;;;2.43;;
4555;SDS011;2290;48.674;9.018;2022-08-21T07:16:13;2.53;;;2.33;;
4555;SDS011;2290;48.674;9.018;2022-08-21T07:18:38;3.07;;;2.63;;
4555;SDS011;2290;48.674;9.018;2022-08-21T07:21:04;4.33;;;2.87;;
4555;SDS011;2290;48.674;9.018;2022-08-21T07:23:32;4.83;;;2.87;;
4555;SDS011;2290;48.674;9.018;2022-08-21T07:26:01;4.13;;;3.50;;
4555;SDS011;2290;48.674;9.018;2022-08-21T07:28:28;3.60;;;2.70;;
4555;SDS011;2290;48.674;9.018;2022-08-21T07:30:55;3.40;;;2.33;;
4555;SDS011;2290;48.674;9.018;2022-08-21T07:33:22;4.77;;;3.00;;
4555;SDS011;2290;48.674;9.018;2022-08-21T07:35:50;5.47;;;3.73;;
4555;SDS011;2290;48.674;9.018;2022-08-21T07:38:16;3.80;;;3.03;;
4555;SDS011;2290;48.674;9.018;2022-08-21T07:40:43;3.70;;;2.73;;
4555;SDS011;2290;48.674;9.018;2022-08-21T07:43:10;5.93;;;3.50;;
4555;SDS011;2290;48.674;9.018;2022-08-21T07:45:36;3.77;;;2.80;;
4555;SDS011;2290;48.674;9.018;2022-08-21T07:48:03;4.00;;;2.97;;
4555;SDS011;2290;48.674;9.018;2022-08-21T07:50:29;4.57;;;2.60;;
4555;SDS011;2290;48.674;9.018;2022-08-21T07:52:57;4.90;;;2.67;;
4555;SDS011;2290;48.674;9.018;2022-08-21T07:55:22;3.97;;;2.57;;
4555;SDS011;2290;48.674;9.018;2022-08-21T07:57:48;5.13;;;3.17;;
4555;SDS011;2290;48.674;9.018;2022-08-21T08:00:15;3.37;;;2.70;;
4555;SDS011;2290;48.674;9.018;2022-08-21T08:02:46;7.37;;;2.67;;
4555;SDS011;2290;48.674;9.018;2022-08-21T08:05:17;5.23;;;2.63;;
4555;SDS011;2290;48.674;9.018;2022-08-21T08:07:45;3.83;;;2.70;;
4555;SDS011;2290;48.674;9.018;2022-08-21T08:10:10;3.93;;;2.70;;
4555;SDS011;2290;48.674;9.018;2022-08-21T08:12:37;3.00;;;2.47;;
4555;SDS011;2290;48.674;9.018;2022-08-21T08:15:05;3.43;;;2.60;;
4555;SDS011;2290;48.674;9.018;2022-08-21T08:17:34;4.40;;;2.70;;
4555;SDS011;2290;48.674;9.018;2022-08-21T08:20:00;6.63;;;2.60;;
4555;SDS011;2290;48.674;9.018;2022-08-21T08:22:27;4.20;;;2.80;;
4555;SDS011;2290;48.674;9.018;2022-08-21T08:24:53;5.90;;;3.07;;
4555;SDS011;2290;48.674;9.018;2022-08-21T08:27:19;4.70;;;3.70;;
4555;SDS011;2290;48.674;9.018;2022-08-21T08:29:45;3.20;;;2.40;;
4555;SDS011;2290;48.674;9.018;2022-08-21T08:32:11;2.83;;;2.33;;
4555;SDS011;2290;48.674;9.018;2022-08-21T08:34:37;2.70;;;2.20;;
4555;SDS011;2290;48.674;9.018;2022-08-21T08:37:04;4.63;;;2.80;;
4555;SDS011;2290;48.674;9.018;2022-08-21T08:39:33;6.60;;;3.60;;
4555;SDS011;2290;48.674;9.018;2022-08-21T08:42:07;3.80;;;2.50;;
4555;SDS011;2290;48.674;9.018;2022-08-21T08:44:36;3.63;;;2.27;;
4555;SDS011;2290;48.674;9.018;2022-08-21T08:47:02;4.50;;;2.80;;
4555;SDS011;2290;48.674;9.018;2022-08-21T08:52:07;3.20;;;2.47;;
4555;SDS011;2290;48.674;9.018;2022-08-21T08:54:44;4.63;;;2.63;;
4555;SDS011;2290;48.674;9.018;2022-08-21T08:57:19;3.00;;;2.50;;
4555;SDS011;2290;48.674;9.018;2022-08-21T08:59:48;5.03;;;2.70;;
4555;SDS011;2290;48.674;9.018;2022-08-21T09:02:18;3.30;;;2.47;;
4555;SDS011;2290;48.674;9.018;2022-08-21T09:04:47;3.77;;;2.70;;
4555;SDS011;2290;48.674;9.018;2022-08-21T09:10:19;2.93;;;2.30;;
4555;SDS011;2290;48.674;9.018;2022-08-21T09:26:14;4.23;;;2.90;;
4555;SDS011;2290;48.674;9.018;2022-08-21T09:28:44;4.37;;;2.30;;
4555;SDS011;2290;48.674;9.018;2022-08-21T09:31:25;3.23;;;2.23;;
4555;SDS011;2290;48.674;9.018;2022-08-21T09:34:00;2.63;;;2.30;;
4555;SDS011;2290;48.674;9.018;2022-08-21T09:36:37;6.17;;;3.40;;
4555;SDS011;2290;48.674;9.018;2022-08-21T09:39:03;4.07;;;2.70;;
4555;SDS011;2290;48.674;9.018;2022-08-21T09:41:32;4.30;;;2.77;;
4555;SDS011;2290;48.674;9.018;2022-08-21T09:44:01;2.97;;;2.30;;
4555;SDS011;2290;48.674;9.018;2022-08-21T09:46:28;2.93;;;2.03;;
4555;SDS011;2290;48.674;9.018;2022-08-21T09:48:54;3.37;;;2.17;;
4555;SDS011;2290;48.674;9.018;2022-08-21T09:51:32;3.27;;;2.30;;
4555;SDS011;2290;48.674;9.018;2022-08-21T09:56:34;5.73;;;2.87;;
4555;SDS011;2290;48.674;9.018;2022-08-21T09:59:33;3.50;;;2.33;;
4555;SDS011;2290;48.674;9.018;2022-08-21T10:02:02;3.70;;;2.63;;
4555;SDS011;2290;48.674;9.018;2022-08-21T10:04:51;4.10;;;2.70;;
4555;SDS011;2290;48.674;9.018;2022-08-21T10:07:21;3.53;;;2.30;;
4555;SDS011;2290;48.674;9.018;2022-08-21T10:09:59;4.40;;;2.47;;
4555;SDS011;2290;48.674;9.018;2022-08-21T10:12:39;4.50;;;2.63;;
4555;SDS011;2290;48.674;9.018;2022-08-21T10:15:18;3.47;;;2.30;;
4555;SDS011;2290;48.674;9.018;2022-08-21T10:23:28;2.70;;;2.20;;
4555;SDS011;2290;48.674;9.018;2022-08-21T10:28:35;2.83;;;2.03;;
4555;SDS011;2290;48.674;9.018;2022-08-21T10:31:14;3.70;;;2.57;;
4555;SDS011;2290;48.674;9.018;2022-08-21T10:36:43;4.03;;;2.23;;
4555;SDS011;2290;48.674;9.018;2022-08-21T10:39:33;3.17;;;2.40;;
4555;SDS011;2290;48.674;9.018;2022-08-21T10:44:49;3.40;;;2.60;;
4555;SDS011;2290;48.674;9.018;2022-08-21T10:53:16;5.37;;;2.87;;
4555;SDS011;2290;48.674;9.018;2022-08-21T10:56:08;3.60;;;2.40;;
4555;SDS011;2290;48.674;9.018;2022-08-21T10:59:09;3.20;;;2.50;;
4555;SDS011;2290;48.674;9.018;2022-08-21T11:02:08;3.70;;;2.50;;
4555;SDS011;2290;48.674;9.018;2022-08-21T11:04:50;4.70;;;3.03;;
4555;SDS011;2290;48.674;9.018;2022-08-21T11:07:28;4.43;;;2.63;;
4555;SDS011;2290;48.674;9.018;2022-08-21T11:10:04;4.47;;;2.80;;
4555;SDS011;2290;48.674;9.018;2022-08-21T11:12:44;3.30;;;2.60;;
4555;SDS011;2290;48.674;9.018;2022-08-21T11:24:02;3.23;;;2.70;;
4555;SDS011;2290;48.674;9.018;2022-08-21T11:26:57;3.87;;;2.57;;
4555;SDS011;2290;48.674;9.018;2022-08-21T11:29:29;2.90;;;2.20;;
4555;SDS011;2290;48.674;9.018;2022-08-21T11:35:01;4.07;;;2.40;;
4555;SDS011;2290;48.674;9.018;2022-08-21T11:37:42;3.70;;;2.60;;
4555;SDS011;2290;48.674;9.018;2022-08-21T11:43:24;3.03;;;2.37;;
4555;SDS011;2290;48.674;9.018;2022-08-21T11:46:11;3.90;;;2.77;;
4555;SDS011;2290;48.674;9.018;2022-08-21T11:48:52;4.63;;;2.67;;
4555;SDS011;2290;48.674;9.018;2022-08-21T11:51:27;5.30;;;2.70;;
4555;SDS011;2290;48.674;9.018;2022-08-21T11:56:43;4.27;;;2.40;;
4555;SDS011;2290;48.674;9.018;2022-08-21T11:59:19;5.67;;;2.73;;
4555;SDS011;2290;48.674;9.018;2022-08-21T12:01:50;3.70;;;2.83;;
4555;SDS011;2290;48.674;9.018;2022-08-21T12:04:18;3.43;;;2.70;;
4555;SDS011;2290;48.674;9.018;2022-08-21T12:06:52;3.90;;;2.43;;
4555;SDS011;2290;48.674;9.018;2022-08-21T12:12:05;4.37;;;2.80;;
4555;SDS011;2290;48.674;9.018;2022-08-21T12:14:37;3.70;;;2.73;;
4555;SDS011;2290;48.674;9.018;2022-08-21T12:17:04;7.07;;;2.93;;
4555;SDS011;2290;48.674;9.018;2022-08-21T12:19:31;2.83;;;2.47;;
4555;SDS011;2290;48.674;9.018;2022-08-21T12:22:06;4.17;;;2.90;;
4555;SDS011;2290;48.674;9.018;2022-08-21T12:27:20;3.60;;;2.67;;
4555;SDS011;2290;48.674;9.018;2022-08-21T12:29:56;4.17;;;2.80;;
4555;SDS011;2290;48.674;9.018;2022-08-21T12:32:29;2.67;;;2.33;;
4555;SDS011;2290;48.674;9.018;2022-08-21T12:37:55;4.20;;;2.90;;
4555;SDS011;2290;48.674;9.018;2022-08-21T12:42:52;4.50;;;2.77;;
4555;SDS011;2290;48.674;9.018;2022-08-21T12:47:59;3.83;;;2.63;;
4555;SDS011;2290;48.674;9.018;2022-08-21T12:50:40;3.67;;;2.67;;
4555;SDS011;2290;48.674;9.018;2022-08-21T12:53:23;3.50;;;2.50;;
4555;SDS011;2290;48.674;9.018;2022-08-21T12:55:57;3.23;;;2.60;;
4555;SDS011;2290;48.674;9.018;2022-08-21T12:58:28;3.87;;;2.87;;
4555;SDS011;2290;48.674;9.018;2022-08-21T13:01:06;4.33;;;3.23;;
4555;SDS011;2290;48.674;9.018;2022-08-21T13:03:54;3.30;;;2.97;;
4555;SDS011;2290;48.674;9.018;2022-08-21T13:06:31;3.40;;;2.57;;
4555;SDS011;2290;48.674;9.018;2022-08-21T13:09:08;3.80;;;3.00;;
4555;SDS011;2290;48.674;9.018;2022-08-21T13:11:40;3.40;;;2.40;;
4555;SDS011;2290;48.674;9.018;2022-08-21T13:14:13;3.97;;;2.90;;
4555;SDS011;2290;48.674;9.018;2022-08-21T13:16:48;4.10;;;2.83;;
4555;SDS011;2290;48.674;9.018;2022-08-21T13:19:23;3.43;;;2.73;;
4555;SDS011;2290;48.674;9.018;2022-08-21T13:21:49;5.40;;;2.67;;
4555;SDS011;2290;48.674;9.018;2022-08-21T13:24:27;5.33;;;2.93;;
4555;SDS011;2290;48.674;9.018;2022-08-21T13:26:54;3.63;;;2.57;;
4555;SDS011;2290;48.674;9.018;2022-08-21T13:29:22;3.00;;;2.50;;
4555;SDS011;2290;48.674;9.018;2022-08-21T13:31:53;4.10;;;2.87;;
4555;SDS011;2290;48.674;9.018;2022-08-21T13:34:22;6.23;;;3.80;;
4555;SDS011;2290;48.674;9.018;2022-08-21T13:36:54;5.30;;;3.17;;
4555;SDS011;2290;48.674;9.018;2022-08-21T13:39:23;5.63;;;3.50;;
4555;SDS011;2290;48.674;9.018;2022-08-21T13:41:50;4.97;;;3.30;;
4555;SDS011;2290;48.674;9.018;2022-08-21T13:44:24;4.00;;;3.23;;
4555;SDS011;2290;48.674;9.018;2022-08-21T13:47:07;4.10;;;3.00;;
4555;SDS011;2290;48.674;9.018;2022-08-21T13:49:40;5.63;;;3.20;;
4555;SDS011;2290;48.674;9.018;2022-08-21T13:52:23;3.70;;;3.00;;
4555;SDS011;2290;48.674;9.018;2022-08-21T13:55:07;3.77;;;2.60;;
4555;SDS011;2290;48.674;9.018;2022-08-21T13:57:38;3.37;;;2.60;;
4555;SDS011;2290;48.674;9.018;2022-08-21T14:00:15;5.17;;;2.90;;
4555;SDS011;2290;48.674;9.018;2022-08-21T14:02:50;4.00;;;2.90;;
4555;SDS011;2290;48.674;9.018;2022-08-21T14:05:24;3.87;;;2.80;;
4555;SDS011;2290;48.674;9.018;2022-08-21T14:07:58;4.57;;;3.30;;
4555;SDS011;2290;48.674;9.018;2022-08-21T14:10:31;5.27;;;3.17;;
4555;SDS011;2290;48.674;9.018;2022-08-21T14:13:03;6.10;;;3.40;;
4555;SDS011;2290;48.674;9.018;2022-08-21T14:15:31;4.30;;;2.73;;
4555;SDS011;2290;48.674;9.018;2022-08-21T14:18:16;4.30;;;2.70;;
4555;SDS011;2290;48.674;9.018;2022-08-21T14:20:45;3.20;;;2.67;;
4555;SDS011;2290;48.674;9.018;2022-08-21T14:23:11;4.00;;;2.97;;
4555;SDS011;2290;48.674;9.018;2022-08-21T14:25:48;5.40;;;3.33;;
4555;SDS011;2290;48.674;9.018;2022-08-21T14:30:53;3.70;;;2.50;;
4555;SDS011;2290;48.674;9.018;2022-08-21T14:33:26;4.70;;;3.20;;
4555;SDS011;2290;48.674;9.018;2022-08-21T14:35:54;6.90;;;3.27;;
4555;SDS011;2290;48.674;9.018;2022-08-21T14:38:20;4.20;;;2.57;;
4555;SDS011;2290;48.674;9.018;2022-08-21T14:40:50;3.40;;;2.60;;
4555;SDS011;2290;48.674;9.018;2022-08-21T14:43:41;5.40;;;2.77;;
4555;SDS011;2290;48.674;9.018;2022-08-21T14:46:07;4.40;;;2.93;;
4555;SDS011;2290;48.674;9.018;2022-08-21T14:48:33;4.87;;;2.70;;
4555;SDS011;2290;48.674;9.018;2022-08-21T14:50:58;4.30;;;2.90;;
4555;SDS011;2290;48.674;9.018;2022-08-21T14:53:24;3.73;;;3.20;;
4555;SDS011;2290;48.674;9.018;2022-08-21T14:55:50;5.20;;;3.63;;
4555;SDS011;2290;48.674;9.018;2022-08-21T14:58:40;6.13;;;3.57;;
4555;SDS011;2290;48.674;9.018;2022-08-21T15:01:08;3.20;;;2.60;;
4555;SDS011;2290;48.674;9.018;2022-08-21T15:03:35;2.90;;;2.70;;
4555;SDS011;2290;48.674;9.018;2022-08-21T15:06:01;5.93;;;3.27;;
4555;SDS011;2290;48.674;9.018;2022-08-21T15:08:28;7.23;;;3.47;;
4555;SDS011;2290;48.674;9.018;2022-08-21T15:10:54;3.80;;;3.00;;
4555;SDS011;2290;48.674;9.018;2022-08-21T15:13:20;3.57;;;3.00;;
4555;SDS011;2290;48.674;9.018;2022-08-21T15:15:47;8.27;;;2.90;;
4555;SDS011;2290;48.674;9.018;2022-08-21T15:18:14;4.17;;;3.07;;
4555;SDS011;2290;48.674;9.018;2022-08-21T15:20:41;4.10;;;2.60;;
4555;SDS011;2290;48.674;9.018;2022-08-21T15:23:07;3.07;;;2.77;;
4555;SDS011;2290;48.674;9.018;2022-08-21T15:25:33;5.03;;;3.10;;
4555;SDS011;2290;48.674;9.018;2022-08-21T15:28:00;4.43;;;3.03;;
4555;SDS011;2290;48.674;9.018;2022-08-21T15:30:27;3.37;;;3.07;;
4555;SDS011;2290;48.674;9.018;2022-08-21T15:32:56;4.27;;;2.97;;
4555;SDS011;2290;48.674;9.018;2022-08-21T15:35:22;6.03;;;3.00;;
4555;SDS011;2290;48.674;9.018;2022-08-21T15:37:48;2.60;;;2.40;;
4555;SDS011;2290;48.674;9.018;2022-08-21T15:40:15;5.17;;;3.23;;
4555;SDS011;2290;48.674;9.018;2022-08-21T15:42:41;3.03;;;2.73;;
4555;SDS011;2290;48.674;9.018;2022-08-21T15:45:08;4.73;;;2.60;;
4555;SDS011;2290;48.674;9.018;2022-08-21T15:47:36;3.53;;;3.20;;
4555;SDS011;2290;48.674;9.018;2022-08-21T15:50:04;4.97;;;3.30;;
4555;SDS011;2290;48.674;9.018;2022-08-21T15:52:34;4.13;;;2.60;;
4555;SDS011;2290;48.674;9.018;2022-08-21T15:55:00;3.40;;;2.77;;
4555;SDS011;2290;48.674;9.018;2022-08-21T15:57:25;4.47;;;2.90;;
4555;SDS011;2290;48.674;9.018;2022-08-21T15:59:56;7.10;;;3.40;;
4555;SDS011;2290;48.674;9.018;2022-08-21T16:02:24;5.27;;;3.23;;
4555;SDS011;2290;48.674;9.018;2022-08-21T16:04:53;3.57;;;3.00;;
4555;SDS011;2290;48.674;9.018;2022-08-21T16:07:20;4.70;;;2.97;;
4555;SDS011;2290;48.674;9.018;2022-08-21T16:09:45;5.10;;;3.27;;
4555;SDS011;2290;48.674;9.018;2022-08-21T16:12:15;4.33;;;3.17;;
4555;SDS011;2290;48.674;9.018;2022-08-21T16:14:45;3.47;;;2.80;;
4555;SDS011;2290;48.674;9.018;2022-08-21T16:17:11;3.67;;;3.10;;
4555;SDS011;2290;48.674;9.018;2022-08-21T16:19:37;4.00;;;3.00;;
4555;SDS011;2290;48.674;9.018;2022-08-21T16:22:03;3.23;;;2.77;;
4555;SDS011;2290;48.674;9.018;2022-08-21T16:24:29;4.63;;;2.90;;
4555;SDS011;2290;48.674;9.018;2022-08-21T16:26:55;4.30;;;2.90;;
4555;SDS011;2290;48.674;9.018;2022-08-21T16:29:21;3.97;;;2.87;;
4555;SDS011;2290;48.674;9.018;2022-08-21T16:31:47;4.57;;;3.17;;
4555;SDS011;2290;48.674;9.018;2022-08-21T16:34:17;3.33;;;2.77;;
4555;SDS011;2290;48.674;9.018;2022-08-21T16:36:44;6.80;;;2.80;;
4555;SDS011;2290;48.674;9.018;2022-08-21T16:39:10;5.37;;;3.50;;
4555;SDS011;2290;48.674;9.018;2022-08-21T16:41:37;4.77;;;3.33;;
4555;SDS011;2290;48.674;9.018;2022-08-21T16:44:04;4.93;;;3.20;;